createdAt,value
2019-05-18T00:00:14.014Z,13.96
2019-05-18T00:01:13.915Z,13.99
2019-05-18T00:02:13.878Z,13.92
2019-05-18T00:03:13.755Z,13.89
2019-05-18T00:04:13.689Z,13.97
2019-05-18T00:05:13.594Z,13.92
2019-05-18T00:06:13.515Z,13.81
2019-05-18T00:07:13.426Z,13.84
2019-05-18T00:08:13.364Z,13.82
2019-05-18T00:09:13.271Z,13.85
2019-05-18T00:10:13.191Z,13.81
2019-05-18T00:11:13.103Z,13.85
2019-05-18T00:12:13.027Z,13.67
2019-05-18T00:13:12.954Z,13.84
2019-05-18T00:14:12.865Z,13.71
2019-05-18T00:15:12.791Z,13.73
2019-05-18T00:16:12.704Z,13.69
2019-05-18T00:17:24.510Z,13.78
2019-05-18T00:18:12.542Z,13.67
2019-05-18T00:19:12.471Z,13.73
2019-05-18T00:20:12.378Z,13.67
2019-05-18T00:21:12.305Z,13.55
2019-05-18T00:22:12.216Z,13.67
2019-05-18T00:23:12.142Z,13.59
2019-05-18T00:24:12.056Z,13.49
2019-05-18T00:25:11.981Z,13.44
2019-05-18T00:26:11.903Z,13.42
2019-05-18T00:27:11.821Z,13.39
2019-05-18T00:28:11.743Z,13.29
2019-05-18T00:29:11.654Z,13.33
2019-05-18T00:30:11.592Z,13.39
2019-05-18T00:31:11.494Z,13.26
2019-05-18T00:32:11.422Z,13.30
2019-05-18T00:33:11.343Z,13.29
2019-05-18T00:34:11.268Z,13.30
2019-05-18T00:35:11.172Z,13.19
2019-05-18T00:36:11.093Z,13.25
2019-05-18T00:37:11.006Z,13.25
2019-05-18T00:38:10.946Z,13.19
2019-05-18T00:39:10.843Z,13.11
2019-05-18T00:40:10.769Z,13.15
2019-05-18T00:41:10.681Z,13.12
2019-05-18T00:42:10.608Z,13.03
2019-05-18T00:43:10.519Z,13.12
2019-05-18T00:44:10.446Z,13.01
2019-05-18T00:45:10.358Z,12.96
2019-05-18T00:46:10.281Z,12.97
2019-05-18T00:47:10.205Z,13.04
2019-05-18T00:48:10.120Z,12.95
2019-05-18T00:49:10.045Z,13.00
2019-05-18T00:50:09.958Z,12.93
2019-05-18T00:51:09.882Z,12.97
2019-05-18T00:52:09.795Z,12.96
2019-05-18T00:53:09.721Z,13.08
2019-05-18T00:54:09.679Z,12.90
2019-05-18T00:55:09.557Z,12.92
2019-05-18T00:56:09.471Z,12.93
2019-05-18T00:57:09.397Z,13.00
2019-05-18T00:58:09.307Z,13.04
2019-05-18T00:59:09.232Z,13.03
2019-05-18T01:00:09.147Z,13.00
2019-05-18T01:01:09.169Z,12.95
2019-05-18T01:02:08.982Z,12.95
2019-05-18T01:03:08.909Z,12.92
2019-05-18T01:04:08.821Z,12.87
2019-05-18T01:05:08.749Z,12.86
2019-05-18T01:06:08.658Z,12.83
2019-05-18T01:07:08.583Z,12.85
2019-05-18T01:08:08.497Z,12.90
2019-05-18T01:09:08.423Z,12.87
2019-05-18T01:10:08.333Z,12.86
2019-05-18T01:11:08.259Z,12.83
2019-05-18T01:12:08.175Z,12.89
2019-05-18T01:13:08.097Z,12.77
2019-05-18T01:14:08.024Z,12.74
2019-05-18T01:15:07.934Z,12.74
2019-05-18T01:16:07.851Z,12.77
2019-05-18T01:17:07.773Z,12.74
2019-05-18T01:18:07.685Z,12.79
2019-05-18T01:19:07.609Z,12.70
2019-05-18T01:20:07.524Z,12.65
2019-05-18T01:21:07.448Z,12.71
2019-05-18T01:22:07.360Z,12.82
2019-05-18T01:23:07.287Z,12.67
2019-05-18T01:24:07.215Z,12.67
2019-05-18T01:25:07.125Z,12.67
2019-05-18T01:26:07.054Z,12.62
2019-05-18T01:27:06.960Z,12.56
2019-05-18T01:28:06.873Z,12.68
2019-05-18T01:29:06.798Z,12.57
2019-05-18T01:30:06.727Z,12.57
2019-05-18T01:31:06.649Z,12.70
2019-05-18T01:32:06.554Z,12.64
2019-05-18T01:33:06.499Z,12.65
2019-05-18T01:34:06.387Z,12.67
2019-05-18T01:35:06.311Z,12.68
2019-05-18T01:36:06.228Z,12.68
2019-05-18T01:37:06.150Z,12.60
2019-05-18T01:38:06.063Z,12.70
2019-05-18T01:39:05.988Z,12.60
2019-05-18T01:40:05.912Z,12.47
2019-05-18T01:41:05.825Z,12.46
2019-05-18T01:42:05.750Z,12.46
2019-05-18T01:43:05.662Z,12.47
2019-05-18T01:44:05.575Z,12.46
2019-05-18T01:45:16.234Z,12.49
2019-05-18T01:46:05.416Z,12.49
2019-05-18T01:47:05.338Z,12.42
2019-05-18T01:48:13.157Z,12.39
2019-05-18T01:49:05.178Z,12.45
2019-05-18T01:50:05.092Z,12.42
2019-05-18T01:51:05.013Z,12.42
2019-05-18T01:52:04.925Z,12.41
2019-05-18T01:53:04.852Z,12.31
2019-05-18T01:54:04.764Z,12.31
2019-05-18T01:55:04.701Z,12.35
2019-05-18T01:56:04.601Z,12.37
2019-05-18T01:57:04.528Z,12.35
2019-05-18T01:58:04.441Z,12.37
2019-05-18T01:59:04.366Z,12.35
2019-05-18T02:00:04.314Z,12.37
2019-05-18T02:01:04.204Z,12.32
2019-05-18T02:02:04.120Z,12.34
2019-05-18T02:03:04.039Z,12.20
2019-05-18T02:04:03.978Z,12.27
2019-05-18T02:05:03.878Z,12.23
2019-05-18T02:06:03.789Z,12.24
2019-05-18T02:07:03.773Z,12.31
2019-05-18T02:08:03.629Z,12.21
2019-05-18T02:09:03.554Z,12.17
2019-05-18T02:10:03.466Z,12.24
2019-05-18T02:11:03.390Z,12.29
2019-05-18T02:12:03.306Z,12.19
2019-05-18T02:13:03.254Z,12.17
2019-05-18T02:14:03.153Z,12.20
2019-05-18T02:15:03.077Z,12.20
2019-05-18T02:16:03.036Z,12.13
2019-05-18T02:17:02.904Z,12.14
2019-05-18T02:18:02.828Z,12.14
2019-05-18T02:19:02.741Z,12.20
2019-05-18T02:20:02.659Z,12.10
2019-05-18T02:21:02.579Z,12.20
2019-05-18T02:22:02.491Z,12.13
2019-05-18T02:23:02.417Z,12.09
2019-05-18T02:24:02.347Z,12.10
2019-05-18T02:25:02.255Z,12.10
2019-05-18T02:26:02.168Z,12.16
2019-05-18T02:27:02.094Z,12.09
2019-05-18T02:28:02.016Z,12.10
2019-05-18T02:29:01.934Z,12.14
2019-05-18T02:30:01.959Z,12.01
2019-05-18T02:31:01.758Z,12.09
2019-05-18T02:32:01.681Z,11.99
2019-05-18T02:33:01.595Z,11.95
2019-05-18T02:34:01.519Z,11.99
2019-05-18T02:35:01.432Z,12.02
2019-05-18T02:36:01.357Z,11.94
2019-05-18T02:37:01.300Z,12.07
2019-05-18T02:38:01.195Z,11.99
2019-05-18T02:39:01.113Z,12.05
2019-05-18T02:40:01.031Z,11.91
2019-05-18T02:41:00.951Z,11.95
2019-05-18T02:42:00.884Z,12.01
2019-05-18T02:43:00.783Z,11.85
2019-05-18T02:44:00.710Z,11.99
2019-05-18T02:45:00.620Z,11.95
2019-05-18T02:46:00.545Z,11.94
2019-05-18T02:47:00.478Z,11.94
2019-05-18T02:48:00.383Z,11.98
2019-05-18T02:49:00.301Z,11.95
2019-05-18T02:50:00.225Z,11.98
2019-05-18T02:51:00.134Z,11.98
2019-05-18T02:52:00.059Z,11.95
2019-05-18T02:52:59.972Z,11.86
2019-05-18T02:53:59.910Z,11.98
2019-05-18T02:54:59.809Z,11.91
2019-05-18T02:55:59.722Z,11.91
2019-05-18T02:56:59.644Z,11.98
2019-05-18T02:57:59.571Z,11.91
2019-05-18T02:58:59.492Z,11.85
2019-05-18T02:59:59.396Z,11.91
2019-05-18T03:00:59.323Z,11.83
2019-05-18T03:01:59.233Z,11.88
2019-05-18T03:02:59.162Z,11.91
2019-05-18T03:03:59.075Z,11.83
2019-05-18T03:04:59.003Z,11.82
2019-05-18T03:05:58.911Z,11.75
2019-05-18T03:06:58.836Z,11.70
2019-05-18T03:07:58.747Z,11.70
2019-05-18T03:08:58.760Z,11.80
2019-05-18T03:09:58.584Z,11.76
2019-05-18T03:10:58.511Z,11.67
2019-05-18T03:11:58.423Z,11.75
2019-05-18T03:12:58.360Z,11.79
2019-05-18T03:13:58.261Z,11.69
2019-05-18T03:14:58.174Z,11.67
2019-05-18T03:15:58.099Z,11.72
2019-05-18T03:16:58.023Z,11.72
2019-05-18T03:17:57.938Z,11.67
2019-05-18T03:19:07.458Z,11.65
2019-05-18T03:19:57.774Z,11.70
2019-05-18T03:20:57.690Z,11.83
2019-05-18T03:22:00.888Z,11.67
2019-05-18T03:22:57.523Z,11.69
2019-05-18T03:23:57.452Z,11.69
2019-05-18T03:24:57.368Z,11.69
2019-05-18T03:25:57.290Z,11.76
2019-05-18T03:26:57.199Z,11.70
2019-05-18T03:27:57.135Z,11.72
2019-05-18T03:28:57.038Z,11.75
2019-05-18T03:29:56.962Z,11.67
2019-05-18T03:30:56.874Z,11.69
2019-05-18T03:31:56.807Z,11.73
2019-05-18T03:32:56.716Z,11.69
2019-05-18T03:33:56.626Z,11.70
2019-05-18T03:34:56.551Z,11.70
2019-05-18T03:35:56.563Z,11.76
2019-05-18T03:36:56.389Z,11.83
2019-05-18T03:37:56.299Z,11.82
2019-05-18T03:38:56.224Z,11.83
2019-05-18T03:39:56.137Z,11.91
2019-05-18T03:40:56.064Z,11.94
2019-05-18T03:41:55.980Z,11.91
2019-05-18T03:42:55.909Z,11.88
2019-05-18T03:43:55.813Z,11.95
2019-05-18T03:44:55.740Z,11.95
2019-05-18T03:45:55.650Z,11.91
2019-05-18T03:46:55.589Z,11.91
2019-05-18T03:47:55.489Z,12.04
2019-05-18T03:48:55.403Z,12.04
2019-05-18T03:49:55.330Z,11.98
2019-05-18T03:50:55.251Z,12.05
2019-05-18T03:51:55.175Z,12.09
2019-05-18T03:52:55.090Z,11.98
2019-05-18T03:53:55.002Z,12.01
2019-05-18T03:54:54.913Z,12.10
2019-05-18T03:55:54.846Z,12.14
2019-05-18T03:56:54.751Z,12.10
2019-05-18T03:57:54.676Z,12.09
2019-05-18T03:58:54.591Z,12.16
2019-05-18T03:59:54.516Z,12.02
2019-05-18T04:00:54.427Z,12.12
2019-05-18T04:01:54.354Z,12.05
2019-05-18T04:02:54.267Z,12.07
2019-05-18T04:03:54.190Z,12.16
2019-05-18T04:04:54.102Z,12.12
2019-05-18T04:05:54.041Z,12.23
2019-05-18T04:06:53.940Z,12.17
2019-05-18T04:07:53.855Z,12.13
2019-05-18T04:08:53.783Z,12.14
2019-05-18T04:09:53.703Z,12.14
2019-05-18T04:10:53.617Z,12.27
2019-05-18T04:11:53.531Z,12.16
2019-05-18T04:12:53.460Z,12.21
2019-05-18T04:13:53.368Z,12.31
2019-05-18T04:14:53.292Z,12.27
2019-05-18T04:15:53.203Z,12.27
2019-05-18T04:16:53.130Z,12.35
2019-05-18T04:17:53.056Z,12.37
2019-05-18T04:18:52.971Z,12.37
2019-05-18T04:19:52.880Z,12.32
2019-05-18T04:20:52.804Z,12.38
2019-05-18T04:21:52.830Z,12.32
2019-05-18T04:22:52.649Z,12.45
2019-05-18T04:23:52.556Z,12.39
2019-05-18T04:24:52.481Z,12.52
2019-05-18T04:25:52.396Z,12.39
2019-05-18T04:26:52.318Z,12.46
2019-05-18T04:27:52.233Z,12.42
2019-05-18T04:28:52.154Z,12.54
2019-05-18T04:29:52.068Z,12.65
2019-05-18T04:30:51.994Z,12.87
2019-05-18T04:31:51.906Z,13.14
2019-05-18T04:32:51.831Z,13.29
2019-05-18T04:33:51.745Z,13.66
2019-05-18T04:34:51.662Z,13.88
2019-05-18T04:35:51.581Z,14.06
2019-05-18T04:36:51.512Z,14.37
2019-05-18T04:37:51.426Z,14.46
2019-05-18T04:38:51.339Z,14.78
2019-05-18T04:39:51.263Z,14.88
2019-05-18T04:40:51.186Z,14.91
2019-05-18T04:41:51.094Z,14.84
2019-05-18T04:42:51.009Z,14.86
2019-05-18T04:43:50.938Z,14.80
2019-05-18T04:44:50.870Z,14.60
2019-05-18T04:45:50.771Z,14.65
2019-05-18T04:46:50.704Z,14.47
2019-05-18T04:47:50.607Z,14.33
2019-05-18T04:48:50.539Z,14.42
2019-05-18T04:50:04.722Z,14.35
2019-05-18T04:50:50.383Z,14.37
2019-05-18T04:51:50.284Z,14.33
2019-05-18T04:52:50.215Z,14.36
2019-05-18T04:53:50.122Z,14.24
2019-05-18T04:54:50.049Z,14.27
2019-05-18T04:55:49.959Z,14.25
2019-05-18T04:56:49.883Z,14.28
2019-05-18T04:57:49.797Z,14.27
2019-05-18T04:58:49.722Z,14.33
2019-05-18T04:59:49.635Z,14.43
2019-05-18T05:00:49.559Z,14.32
2019-05-18T05:01:49.497Z,14.35
2019-05-18T05:02:49.399Z,14.43
2019-05-18T05:03:49.324Z,14.50
2019-05-18T05:04:52.711Z,14.47
2019-05-18T05:05:49.163Z,14.45
2019-05-18T05:06:49.073Z,14.40
2019-05-18T05:07:49.001Z,14.32
2019-05-18T05:08:48.922Z,14.29
2019-05-18T05:09:48.835Z,14.29
2019-05-18T05:10:48.755Z,14.17
2019-05-18T05:11:48.674Z,14.18
2019-05-18T05:12:48.603Z,14.21
2019-05-18T05:13:48.530Z,14.22
2019-05-18T05:14:48.435Z,14.32
2019-05-18T05:15:48.355Z,14.35
2019-05-18T05:16:48.273Z,14.35
2019-05-18T05:17:48.185Z,14.36
2019-05-18T05:18:48.111Z,14.33
2019-05-18T05:19:48.024Z,14.47
2019-05-18T05:20:47.949Z,14.29
2019-05-18T05:21:47.861Z,14.22
2019-05-18T05:22:47.793Z,14.37
2019-05-18T05:23:47.712Z,14.39
2019-05-18T05:24:47.627Z,14.33
2019-05-18T05:25:47.552Z,14.39
2019-05-18T05:26:47.469Z,14.43
2019-05-18T05:27:47.386Z,14.46
2019-05-18T05:28:47.301Z,14.65
2019-05-18T05:29:47.227Z,14.70
2019-05-18T05:30:47.139Z,14.51
2019-05-18T05:31:47.063Z,14.68
2019-05-18T05:32:46.981Z,14.73
2019-05-18T05:33:46.900Z,14.83
2019-05-18T05:34:46.814Z,14.81
2019-05-18T05:35:46.738Z,14.83
2019-05-18T05:36:46.668Z,14.92
2019-05-18T05:37:46.576Z,14.89
2019-05-18T05:38:46.500Z,14.92
2019-05-18T05:39:46.414Z,14.88
2019-05-18T05:40:46.337Z,14.89
2019-05-18T05:41:46.251Z,14.96
2019-05-18T05:42:46.177Z,14.99
2019-05-18T05:43:46.105Z,15.03
2019-05-18T05:44:46.016Z,15.07
2019-05-18T05:45:45.939Z,15.14
2019-05-18T05:46:45.852Z,15.03
2019-05-18T05:47:45.777Z,15.16
2019-05-18T05:48:45.689Z,15.14
2019-05-18T05:49:45.613Z,15.27
2019-05-18T05:50:45.545Z,15.11
2019-05-18T05:51:45.451Z,15.25
2019-05-18T05:52:45.386Z,15.25
2019-05-18T05:53:45.289Z,15.32
2019-05-18T05:54:45.214Z,15.36
2019-05-18T05:55:45.128Z,15.44
2019-05-18T05:56:45.055Z,15.50
2019-05-18T05:57:44.977Z,15.49
2019-05-18T05:58:44.901Z,15.49
2019-05-18T05:59:44.828Z,15.51
2019-05-18T06:00:44.728Z,15.53
2019-05-18T06:01:44.653Z,15.60
2019-05-18T06:02:44.566Z,15.64
2019-05-18T06:03:44.491Z,15.76
2019-05-18T06:04:44.429Z,15.86
2019-05-18T06:05:44.329Z,15.97
2019-05-18T06:06:44.254Z,16.05
2019-05-18T06:07:44.170Z,16.02
2019-05-18T06:08:44.091Z,16.05
2019-05-18T06:09:44.033Z,16.02
2019-05-18T06:10:43.930Z,16.00
2019-05-18T06:11:43.881Z,15.97
2019-05-18T06:12:43.792Z,15.92
2019-05-18T06:13:43.691Z,15.84
2019-05-18T06:14:43.623Z,15.84
2019-05-18T06:15:43.530Z,15.89
2019-05-18T06:16:43.455Z,16.00
2019-05-18T06:17:43.366Z,16.04
2019-05-18T06:18:43.295Z,16.14
2019-05-18T06:19:43.205Z,16.12
2019-05-18T06:20:51.039Z,16.14
2019-05-18T06:21:43.055Z,16.05
2019-05-18T06:22:42.969Z,16.09
2019-05-18T06:23:42.893Z,16.08
2019-05-18T06:24:42.812Z,16.21
2019-05-18T06:25:42.730Z,16.08
2019-05-18T06:26:42.660Z,16.11
2019-05-18T06:27:42.582Z,16.20
2019-05-18T06:28:42.494Z,16.34
2019-05-18T06:29:42.407Z,16.43
2019-05-18T06:30:42.333Z,16.33
2019-05-18T06:31:42.256Z,16.52
2019-05-18T06:32:42.169Z,16.50
2019-05-18T06:33:42.094Z,16.60
2019-05-18T06:34:42.008Z,16.56
2019-05-18T06:35:41.978Z,16.58
2019-05-18T06:36:41.856Z,16.43
2019-05-18T06:37:41.770Z,16.64
2019-05-18T06:38:41.695Z,16.61
2019-05-18T06:39:41.621Z,16.64
2019-05-18T06:40:41.533Z,16.75
2019-05-18T06:41:41.457Z,16.75
2019-05-18T06:42:41.369Z,16.83
2019-05-18T06:43:41.294Z,16.78
2019-05-18T06:44:41.221Z,16.89
2019-05-18T06:45:41.133Z,16.98
2019-05-18T06:46:41.059Z,16.88
2019-05-18T06:47:40.982Z,17.00
2019-05-18T06:48:40.908Z,16.88
2019-05-18T06:49:40.820Z,17.00
2019-05-18T06:50:40.733Z,17.11
2019-05-18T06:51:40.672Z,17.14
2019-05-18T06:52:40.620Z,16.97
2019-05-18T06:53:40.499Z,16.85
2019-05-18T06:54:40.422Z,16.83
2019-05-18T06:55:40.346Z,16.93
2019-05-18T06:56:40.261Z,17.06
2019-05-18T06:57:40.183Z,17.04
2019-05-18T06:58:40.100Z,16.98
2019-05-18T06:59:40.024Z,17.06
2019-05-18T07:00:39.962Z,17.03
2019-05-18T07:01:39.865Z,17.22
2019-05-18T07:02:39.792Z,17.26
2019-05-18T07:03:39.719Z,17.11
2019-05-18T07:04:39.622Z,17.19
2019-05-18T07:05:39.560Z,17.22
2019-05-18T07:06:39.473Z,17.46
2019-05-18T07:07:39.392Z,17.56
2019-05-18T07:08:39.310Z,17.56
2019-05-18T07:09:39.236Z,17.51
2019-05-18T07:10:39.161Z,17.70
2019-05-18T07:11:39.072Z,17.90
2019-05-18T07:12:38.997Z,17.84
2019-05-18T07:13:38.916Z,18.00
2019-05-18T07:14:38.836Z,17.99
2019-05-18T07:15:38.814Z,17.96
2019-05-18T07:16:38.673Z,17.95
2019-05-18T07:17:38.603Z,18.23
2019-05-18T07:18:38.529Z,18.29
2019-05-18T07:19:38.437Z,18.48
2019-05-18T07:20:38.362Z,18.42
2019-05-18T07:21:38.288Z,18.39
2019-05-18T07:22:38.201Z,18.36
2019-05-18T07:23:38.125Z,18.62
2019-05-18T07:24:38.049Z,18.73
2019-05-18T07:25:37.975Z,19.23
2019-05-18T07:26:37.889Z,19.66
2019-05-18T07:27:37.813Z,19.78
2019-05-18T07:28:37.739Z,19.74
2019-05-18T07:29:37.663Z,20.05
2019-05-18T07:30:37.575Z,20.42
2019-05-18T07:31:37.499Z,20.29
2019-05-18T07:32:37.425Z,20.08
2019-05-18T07:33:37.351Z,20.48
2019-05-18T07:34:37.280Z,20.29
2019-05-18T07:35:37.188Z,20.50
2019-05-18T07:36:37.113Z,20.99
2019-05-18T07:37:37.047Z,20.95
2019-05-18T07:38:36.964Z,21.28
2019-05-18T07:39:36.891Z,21.14
2019-05-18T07:40:36.813Z,20.80
2019-05-18T07:41:46.215Z,20.58
2019-05-18T07:42:36.652Z,20.26
2019-05-18T07:43:36.576Z,20.69
2019-05-18T07:44:36.501Z,21.09
2019-05-18T07:45:36.426Z,21.21
2019-05-18T07:46:36.351Z,21.59
2019-05-18T07:47:36.277Z,20.69
2019-05-18T07:48:36.202Z,21.17
2019-05-18T07:49:36.146Z,21.65
2019-05-18T07:50:36.054Z,22.17
2019-05-18T07:51:37.332Z,22.86
2019-05-18T07:52:35.902Z,23.25
2019-05-18T07:53:35.841Z,22.36
2019-05-18T07:54:35.753Z,22.42
2019-05-18T07:55:35.677Z,22.67
2019-05-18T07:56:35.602Z,22.49
2019-05-18T07:57:35.528Z,22.68
2019-05-18T07:58:35.454Z,23.20
2019-05-18T07:59:35.377Z,23.65
2019-05-18T08:00:35.344Z,22.70
2019-05-18T08:01:35.230Z,22.58
2019-05-18T08:02:35.167Z,22.25
2019-05-18T08:03:35.077Z,22.70
2019-05-18T08:04:35.005Z,23.32
2019-05-18T08:05:34.928Z,23.50
2019-05-18T08:06:34.876Z,23.84
2019-05-18T08:07:34.779Z,24.05
2019-05-18T08:08:34.720Z,23.87
2019-05-18T08:09:34.674Z,23.40
2019-05-18T08:10:34.567Z,23.84
2019-05-18T08:11:34.493Z,24.13
2019-05-18T08:12:34.432Z,24.49
2019-05-18T08:13:34.367Z,24.46
2019-05-18T08:14:34.282Z,24.52
2019-05-18T08:15:34.204Z,25.00
2019-05-18T08:16:34.130Z,25.33
2019-05-18T08:17:34.059Z,24.98
2019-05-18T08:18:33.993Z,24.64
2019-05-18T08:19:33.918Z,24.62
2019-05-18T08:20:33.860Z,24.64
2019-05-18T08:21:33.779Z,25.06
2019-05-18T08:22:33.717Z,25.10
2019-05-18T08:23:33.630Z,24.09
2019-05-18T08:24:33.569Z,24.55
2019-05-18T08:25:33.505Z,24.64
2019-05-18T08:26:33.419Z,24.08
2019-05-18T08:27:33.355Z,23.83
2019-05-18T08:28:33.281Z,23.65
2019-05-18T08:29:33.209Z,24.39
2019-05-18T08:30:33.149Z,23.95
2019-05-18T08:31:33.070Z,23.58
2019-05-18T08:32:33.014Z,23.94
2019-05-18T08:33:32.931Z,24.21
2019-05-18T08:34:32.857Z,24.47
2019-05-18T08:35:32.794Z,23.84
2019-05-18T08:36:32.719Z,24.08
2019-05-18T08:37:32.657Z,24.39
2019-05-18T08:38:32.585Z,24.45
2019-05-18T08:39:32.507Z,24.16
2019-05-18T08:40:32.445Z,23.97
2019-05-18T08:41:32.371Z,23.75
2019-05-18T08:42:32.471Z,23.83
2019-05-18T08:43:32.245Z,24.21
2019-05-18T08:44:32.163Z,23.93
2019-05-18T08:45:32.099Z,24.20
2019-05-18T08:46:32.021Z,23.58
2019-05-18T08:47:31.958Z,23.80
2019-05-18T08:48:31.896Z,23.53
2019-05-18T08:49:31.826Z,23.70
2019-05-18T08:50:31.746Z,23.55
2019-05-18T08:51:31.672Z,23.58
2019-05-18T08:52:31.608Z,23.78
2019-05-18T08:53:31.537Z,23.32
2019-05-18T08:54:31.471Z,23.54
2019-05-18T08:55:31.397Z,23.93
2019-05-18T08:56:31.322Z,24.45
2019-05-18T08:57:31.260Z,24.28
2019-05-18T08:58:31.191Z,24.57
2019-05-18T08:59:31.126Z,24.67
2019-05-18T09:00:31.073Z,25.05
2019-05-18T09:01:30.984Z,24.77
2019-05-18T09:02:30.910Z,24.37
2019-05-18T09:03:30.836Z,24.60
2019-05-18T09:04:30.776Z,25.09
2019-05-18T09:05:30.699Z,25.47
2019-05-18T09:06:30.635Z,25.79
2019-05-18T09:07:30.560Z,26.20
2019-05-18T09:08:30.499Z,26.70
2019-05-18T09:09:30.424Z,25.99
2019-05-18T09:10:30.361Z,25.32
2019-05-18T09:11:30.285Z,25.17
2019-05-18T09:12:30.223Z,25.54
2019-05-18T09:13:30.154Z,25.73
2019-05-18T09:14:30.086Z,25.65
2019-05-18T09:15:30.024Z,25.79
2019-05-18T09:16:29.970Z,25.14
2019-05-18T09:17:29.886Z,25.23
2019-05-18T09:18:29.833Z,25.50
2019-05-18T09:19:29.750Z,24.81
2019-05-18T09:20:29.686Z,24.53
2019-05-18T09:21:29.613Z,24.28
2019-05-18T09:22:29.537Z,24.34
2019-05-18T09:23:29.475Z,24.61
2019-05-18T09:24:29.412Z,25.10
2019-05-18T09:25:29.337Z,25.36
2019-05-18T09:26:29.275Z,25.23
2019-05-18T09:27:29.203Z,25.39
2019-05-18T09:28:29.143Z,25.65
2019-05-18T09:29:29.066Z,25.87
2019-05-18T09:30:29.000Z,25.13
2019-05-18T09:31:28.940Z,24.95
2019-05-18T09:32:28.881Z,25.17
2019-05-18T09:33:28.835Z,25.45
2019-05-18T09:34:28.726Z,24.90
2019-05-18T09:35:28.677Z,24.60
2019-05-18T09:36:28.609Z,24.57
2019-05-18T09:37:28.527Z,24.83
2019-05-18T09:38:28.464Z,24.95
2019-05-18T09:39:28.389Z,24.67
2019-05-18T09:40:28.326Z,24.60
2019-05-18T09:41:28.252Z,24.46
2019-05-18T09:42:28.189Z,24.53
2019-05-18T09:43:28.115Z,24.77
2019-05-18T09:44:28.054Z,24.45
2019-05-18T09:45:27.978Z,23.94
2019-05-18T09:46:27.914Z,23.80
2019-05-18T09:47:27.842Z,23.38
2019-05-18T09:48:27.766Z,23.19
2019-05-18T09:49:27.703Z,22.86
2019-05-18T09:50:27.629Z,23.04
2019-05-18T09:51:27.564Z,23.01
2019-05-18T09:52:44.198Z,23.15
2019-05-18T09:53:29.921Z,23.25
2019-05-18T09:54:27.341Z,23.05
2019-05-18T09:55:27.265Z,22.85
2019-05-18T09:56:27.190Z,22.88
2019-05-18T09:57:27.128Z,22.94
2019-05-18T09:58:27.056Z,23.27
2019-05-18T09:59:26.979Z,23.17
2019-05-18T10:00:26.904Z,23.28
2019-05-18T10:01:26.829Z,23.51
2019-05-18T10:02:26.755Z,23.94
2019-05-18T10:03:26.687Z,24.18
2019-05-18T10:04:26.604Z,23.72
2019-05-18T10:05:26.532Z,23.32
2019-05-18T10:06:26.454Z,23.55
2019-05-18T10:07:26.392Z,23.31
2019-05-18T10:08:26.317Z,23.46
2019-05-18T10:09:26.296Z,23.57
2019-05-18T10:10:26.169Z,23.72
2019-05-18T10:11:26.109Z,23.79
2019-05-18T10:12:26.017Z,24.13
2019-05-18T10:13:25.975Z,23.60
2019-05-18T10:14:25.868Z,23.28
2019-05-18T10:15:25.793Z,23.46
2019-05-18T10:16:25.718Z,23.65
2019-05-18T10:17:25.642Z,24.06
2019-05-18T10:18:25.567Z,24.35
2019-05-18T10:19:25.553Z,24.78
2019-05-18T10:20:25.418Z,24.52
2019-05-18T10:21:25.349Z,24.35
2019-05-18T10:22:25.268Z,23.90
2019-05-18T10:23:25.194Z,24.03
2019-05-18T10:24:25.138Z,23.70
2019-05-18T10:25:25.046Z,23.69
2019-05-18T10:26:24.983Z,23.75
2019-05-18T10:27:24.894Z,23.84
2019-05-18T10:28:24.822Z,23.94
2019-05-18T10:29:24.744Z,23.98
2019-05-18T10:30:24.672Z,23.80
2019-05-18T10:31:24.594Z,23.95
2019-05-18T10:32:24.522Z,24.05
2019-05-18T10:33:24.445Z,23.68
2019-05-18T10:34:24.371Z,23.58
2019-05-18T10:35:24.302Z,23.66
2019-05-18T10:36:24.221Z,23.80
2019-05-18T10:37:24.147Z,23.70
2019-05-18T10:38:24.072Z,23.84
2019-05-18T10:39:23.997Z,24.15
2019-05-18T10:40:23.933Z,24.10
2019-05-18T10:41:23.858Z,24.50
2019-05-18T10:42:23.788Z,25.21
2019-05-18T10:43:23.761Z,25.75
2019-05-18T10:44:23.637Z,26.77
2019-05-18T10:45:23.559Z,26.76
2019-05-18T10:46:23.483Z,26.76
2019-05-18T10:47:23.409Z,26.62
2019-05-18T10:48:23.334Z,26.23
2019-05-18T10:49:23.271Z,25.83
2019-05-18T10:50:23.196Z,25.54
2019-05-18T10:51:23.126Z,25.50
2019-05-18T10:52:23.046Z,25.05
2019-05-18T10:53:28.759Z,25.17
2019-05-18T10:54:22.915Z,25.80
2019-05-18T10:55:22.853Z,26.01
2019-05-18T10:56:22.760Z,26.43
2019-05-18T10:57:22.697Z,26.13
2019-05-18T10:58:22.621Z,26.09
2019-05-18T10:59:22.560Z,26.58
2019-05-18T11:00:22.485Z,26.09
2019-05-18T11:01:22.413Z,26.73
2019-05-18T11:02:22.347Z,27.54
2019-05-18T11:03:22.274Z,27.03
2019-05-18T11:04:22.214Z,27.69
2019-05-18T11:05:22.135Z,27.87
2019-05-18T11:06:22.073Z,27.70
2019-05-18T11:07:22.000Z,28.14
2019-05-18T11:08:21.935Z,28.39
2019-05-18T11:09:21.874Z,27.63
2019-05-18T11:10:21.800Z,27.12
2019-05-18T11:11:21.735Z,27.37
2019-05-18T11:12:21.674Z,27.21
2019-05-18T11:13:21.599Z,27.00
2019-05-18T11:14:21.552Z,27.04
2019-05-18T11:15:21.547Z,27.36
2019-05-18T11:16:21.405Z,27.87
2019-05-18T11:17:21.338Z,28.19
2019-05-18T11:18:21.263Z,27.77
2019-05-18T11:19:21.199Z,27.72
2019-05-18T11:20:21.137Z,27.49
2019-05-18T11:21:21.074Z,27.09
2019-05-18T11:22:20.999Z,26.50
2019-05-18T11:23:20.937Z,26.73
2019-05-18T11:24:20.874Z,26.80
2019-05-18T11:25:20.799Z,27.90
2019-05-18T11:26:20.738Z,27.87
2019-05-18T11:27:20.675Z,27.49
2019-05-18T11:28:20.600Z,27.87
2019-05-18T11:29:23.441Z,27.92
2019-05-18T11:30:20.475Z,27.82
2019-05-18T11:31:20.401Z,27.50
2019-05-18T11:32:20.339Z,27.07
2019-05-18T11:33:20.275Z,27.57
2019-05-18T11:34:20.201Z,28.48
2019-05-18T11:35:20.141Z,29.15
2019-05-18T11:36:20.075Z,29.14
2019-05-18T11:37:20.002Z,29.48
2019-05-18T11:38:19.942Z,28.19
2019-05-18T11:39:19.883Z,27.43
2019-05-18T11:40:19.815Z,26.92
2019-05-18T11:41:19.744Z,27.65
2019-05-18T11:42:19.677Z,28.41
2019-05-18T11:43:19.621Z,28.21
2019-05-18T11:44:19.546Z,28.54
2019-05-18T11:45:19.476Z,27.97
2019-05-18T11:46:19.415Z,28.58
2019-05-18T11:47:19.340Z,28.93
2019-05-18T11:48:19.276Z,28.07
2019-05-18T11:49:19.215Z,27.75
2019-05-18T11:50:19.165Z,27.62
2019-05-18T11:51:19.077Z,26.95
2019-05-18T11:52:19.016Z,27.17
2019-05-18T11:53:18.957Z,27.18
2019-05-18T11:54:18.877Z,27.43
2019-05-18T11:55:18.817Z,28.06
2019-05-18T11:56:18.766Z,28.21
2019-05-18T11:57:18.679Z,26.69
2019-05-18T11:58:18.617Z,26.80
2019-05-18T11:59:18.554Z,27.34
2019-05-18T12:00:18.491Z,28.03
2019-05-18T12:01:18.417Z,28.85
2019-05-18T12:02:18.353Z,28.29
2019-05-18T12:03:18.384Z,28.58
2019-05-18T12:04:18.217Z,27.96
2019-05-18T12:05:18.158Z,28.88
2019-05-18T12:06:18.095Z,29.16
2019-05-18T12:07:18.029Z,29.30
2019-05-18T12:08:17.958Z,28.55
2019-05-18T12:09:17.892Z,28.86
2019-05-18T12:10:18.466Z,28.68
2019-05-18T12:11:17.757Z,29.06
2019-05-18T12:12:17.693Z,28.11
2019-05-18T12:13:17.629Z,26.89
2019-05-18T12:14:20.179Z,26.23
2019-05-18T12:15:17.507Z,26.63
2019-05-18T12:16:18.242Z,27.03
2019-05-18T12:17:17.367Z,27.75
2019-05-18T12:18:17.304Z,28.25
2019-05-18T12:19:17.243Z,28.49
2019-05-18T12:20:17.168Z,27.69
2019-05-18T12:21:17.105Z,27.81
2019-05-18T12:22:17.043Z,28.31
2019-05-18T12:23:16.968Z,28.70
2019-05-18T12:24:16.906Z,27.74
2019-05-18T12:25:16.830Z,28.43
2019-05-18T12:26:16.769Z,28.78
2019-05-18T12:27:16.705Z,29.39
2019-05-18T12:28:16.643Z,29.00
2019-05-18T12:29:16.583Z,29.15
2019-05-18T12:30:16.506Z,28.33
2019-05-18T12:31:16.438Z,29.09
2019-05-18T12:32:16.370Z,28.43
2019-05-18T12:33:16.306Z,27.87
2019-05-18T12:34:17.244Z,27.43
2019-05-18T12:35:16.170Z,28.22
2019-05-18T12:36:16.110Z,28.18
2019-05-18T12:37:16.046Z,27.43
2019-05-18T12:38:15.975Z,26.69
2019-05-18T12:39:15.909Z,26.32
2019-05-18T12:40:15.848Z,26.05
2019-05-18T12:41:15.794Z,27.32
2019-05-18T12:42:15.707Z,27.37
2019-05-18T12:43:15.647Z,27.67
2019-05-18T12:44:15.582Z,27.93
2019-05-18T12:45:15.509Z,28.41
2019-05-18T12:46:15.451Z,28.58
2019-05-18T12:47:15.373Z,28.88
2019-05-18T12:48:15.309Z,28.09
2019-05-18T12:49:15.247Z,28.30
2019-05-18T12:50:15.171Z,29.23
2019-05-18T12:51:15.109Z,28.07